Terminal Aerodrome Forecast
Issued by NWS Wilmington, OH

Current Version | Previous Version | Text Only | Print | Product List | Glossary Off
Versions: 1 2 3 4 5 6 7 8 9 10 11 12 13 14 15 16 17 18 19 20 21

887
FTUS41 KILN 172339
TAFDAY
TAF
KDAY 172339Z 1800/1824 16011KT P6SM SCT250
     FM180400 18012G20KT 5SM -SHRA SCT025 OVC050 WS020/20045KT
     FM180900 20016G29KT P6SM VCSH OVC015
     FM181900 20020G33KT P6SM -SHRA OVC012
     FM182200 30022G30KT P6SM VCSH OVC018=

USA.gov is the U.S. government's official web portal to all federal, state and local government web resources and services.